Time;durP1;ratioP1;P1;durP2;ratioP2;P2;SDS_P1;SDS_P2;PMS_P1;PMS_P2;Temp;Humidity;BMP_temperature;BMP_pressure;BME280_temperature;BME280_humidity;BME280_pressure;Samples;Min_cycle;Max_cycle;Signal;HPM_P1;HPM_P2
2023/01/31 00:01:10;;;;;;;3.88;2.30;;;3.00;99.90;;;;;;4902505;29;20386;-73
2023/01/31 00:03:38;;;;;;;3.10;2.30;;;3.00;99.90;;;;;;4920964;29;20095;-73
2023/01/31 00:06:13;;;;;;;5.80;2.80;;;2.90;99.90;;;;;;4920935;29;20105;-73
2023/01/31 00:08:39;;;;;;;5.45;3.00;;;2.90;99.90;;;;;;4921015;29;20154;-73
2023/01/31 00:11:04;;;;;;;5.05;3.15;;;2.90;99.90;;;;;;4904137;29;20504;-72
2023/01/31 00:13:30;;;;;;;8.65;3.50;;;2.90;99.90;;;;;;4904494;29;20032;-73
2023/01/31 00:15:56;;;;;;;6.30;3.58;;;2.90;99.90;;;;;;4904006;29;20463;-73
2023/01/31 00:18:22;;;;;;;5.03;3.47;;;3.00;99.90;;;;;;4921295;29;20032;-73
2023/01/31 00:20:48;;;;;;;10.60;5.30;;;3.00;99.90;;;;;;4920861;29;20020;-73
2023/01/31 00:23:13;;;;;;;8.70;4.75;;;3.00;99.90;;;;;;4902846;29;20032;-73
2023/01/31 00:25:39;;;;;;;5.93;4.15;;;3.10;99.90;;;;;;4919556;29;20036;-73
2023/01/31 00:28:05;;;;;;;6.97;4.25;;;3.10;99.90;;;;;;4919483;29;20343;-72
2023/01/31 00:30:30;;;;;;;8.32;3.97;;;3.20;99.90;;;;;;4919470;29;20406;-73
2023/01/31 00:32:56;;;;;;;7.88;4.07;;;3.20;99.90;;;;;;4902250;29;20059;-73
2023/01/31 00:35:22;;;;;;;7.38;4.32;;;3.30;99.90;;;;;;4902892;29;20042;-73
2023/01/31 00:37:47;;;;;;;9.40;4.60;;;3.30;99.90;;;;;;4919531;29;20103;-73
2023/01/31 00:40:13;;;;;;;9.75;4.38;;;3.30;99.90;;;;;;4919523;29;20135;-73
2023/01/31 00:42:39;;;;;;;7.65;4.00;;;3.30;99.90;;;;;;4919802;29;20036;-73
2023/01/31 00:45:05;;;;;;;8.68;4.50;;;3.30;99.90;;;;;;4919129;29;20044;-73
2023/01/31 00:47:31;;;;;;;9.30;4.55;;;3.30;99.90;;;;;;4919561;29;20033;-73
2023/01/31 00:49:56;;;;;;;5.60;3.72;;;3.30;99.90;;;;;;4919653;29;20028;-73
2023/01/31 00:52:22;;;;;;;8.35;3.97;;;3.40;99.90;;;;;;4920451;29;20032;-73
2023/01/31 00:54:47;;;;;;;4.95;3.30;;;3.50;99.90;;;;;;4905987;29;20032;-73
2023/01/31 00:57:13;;;;;;;7.47;3.50;;;3.50;99.90;;;;;;4923590;29;20057;-73
2023/01/31 00:59:38;;;;;;;7.68;3.70;;;3.60;99.90;;;;;;4906115;29;20118;-73
2023/01/31 01:02:04;;;;;;;9.18;4.13;;;3.60;99.90;;;;;;4921995;29;20493;-73
2023/01/31 01:04:30;;;;;;;6.32;2.63;;;3.60;99.90;;;;;;4920559;29;20510;-73
2023/01/31 01:06:55;;;;;;;4.88;3.22;;;3.60;99.90;;;;;;4905312;29;20068;-73
2023/01/31 01:09:21;;;;;;;3.47;2.53;;;3.60;99.90;;;;;;4904769;29;20402;-73
2023/01/31 01:11:47;;;;;;;9.20;2.85;;;3.70;99.90;;;;;;4901997;29;20032;-73
2023/01/31 01:14:13;;;;;;;6.43;2.83;;;3.70;99.90;;;;;;4920192;29;20039;-73
2023/01/31 01:16:40;;;;;;;6.25;3.22;;;3.70;99.90;;;;;;4919961;29;20390;-73
2023/01/31 01:19:10;;;;;;;6.57;3.08;;;3.70;99.90;;;;;;4920015;29;20055;-73
2023/01/31 01:21:39;;;;;;;4.35;3.28;;;3.60;99.90;;;;;;4920614;29;20088;-73
2023/01/31 01:24:10;;;;;;;3.50;2.60;;;3.60;99.90;;;;;;4919212;29;20024;-73
2023/01/31 01:26:36;;;;;;;4.68;3.25;;;3.60;99.90;;;;;;4918658;29;20100;-73
2023/01/31 01:29:03;;;;;;;7.85;3.10;;;3.70;99.90;;;;;;4919114;29;20032;-73
2023/01/31 01:31:29;;;;;;;5.20;3.30;;;3.70;99.90;;;;;;4918730;29;20032;-73
2023/01/31 01:34:02;;;;;;;6.55;3.20;;;3.70;99.90;;;;;;4902938;29;20030;-73
2023/01/31 01:36:30;;;;;;;6.47;3.60;;;3.60;99.90;;;;;;4919627;29;20371;-73
2023/01/31 01:38:56;;;;;;;7.90;2.88;;;3.60;99.90;;;;;;4918660;29;20423;-73
2023/01/31 01:41:22;;;;;;;9.85;3.95;;;3.60;99.90;;;;;;4919148;29;20035;-73
2023/01/31 01:43:57;;;;;;;6.50;3.72;;;3.60;99.90;;;;;;4918604;29;20075;-73
2023/01/31 01:46:22;;;;;;;9.13;3.17;;;3.50;99.90;;;;;;4901036;29;20093;-72
2023/01/31 01:48:53;;;;;;;5.80;3.42;;;3.50;99.90;;;;;;4918992;29;20023;-73
2023/01/31 01:51:20;;;;;;;7.40;4.20;;;3.50;99.90;;;;;;4901725;29;20032;-73
2023/01/31 01:53:51;;;;;;;6.32;3.97;;;3.50;99.90;;;;;;4918908;29;20103;-73
2023/01/31 01:56:25;;;;;;;6.88;3.80;;;3.50;99.90;;;;;;4918105;29;20478;-71
2023/01/31 01:58:54;;;;;;;6.78;3.88;;;3.50;99.90;;;;;;4918408;29;20034;-73
2023/01/31 02:01:20;;;;;;;6.03;3.20;;;3.50;99.90;;;;;;4900829;29;20561;-74
2023/01/31 02:03:47;;;;;;;8.43;3.58;;;3.40;99.90;;;;;;4918328;29;20048;-74
2023/01/31 02:06:13;;;;;;;9.27;3.72;;;3.30;99.90;;;;;;4901384;29;20090;-74
2023/01/31 02:08:41;;;;;;;8.68;4.63;;;3.20;99.90;;;;;;4901533;29;20031;-75
2023/01/31 02:11:21;;;;;;;6.35;4.10;;;3.10;99.90;;;;;;4918422;29;20036;-74
2023/01/31 02:13:50;;;;;;;8.07;4.13;;;3.10;99.90;;;;;;4901710;29;20430;-74
2023/01/31 02:16:16;;;;;;;8.73;4.20;;;3.10;99.90;;;;;;4901100;29;20036;-74
2023/01/31 02:18:43;;;;;;;10.13;4.55;;;3.10;99.90;;;;;;4917988;29;20032;-74
2023/01/31 02:21:23;;;;;;;7.80;4.28;;;3.20;99.90;;;;;;4918117;29;20039;-74
2023/01/31 02:24:10;;;;;;;8.25;4.50;;;3.10;99.90;;;;;;4921351;29;20470;-74
2023/01/31 02:26:58;;;;;;;7.28;4.50;;;3.10;99.90;;;;;;4905430;29;20123;-74
2023/01/31 02:29:53;;;;;;;5.90;4.05;;;3.10;99.90;;;;;;4906163;29;20127;-74
2023/01/31 02:32:37;;;;;;;8.18;3.95;;;3.10;99.90;;;;;;4922472;29;20116;-74
2023/01/31 02:35:43;;;;;;;9.50;3.88;;;3.20;99.90;;;;;;4922936;29;20115;-74
2023/01/31 02:38:23;;;;;;;7.55;3.72;;;3.20;99.90;;;;;;4921386;29;20044;-74
2023/01/31 02:40:53;;;;;;;7.63;4.03;;;3.20;99.90;;;;;;4923580;29;20025;-74
2023/01/31 02:46:41;;;;;;;7.75;3.30;;;3.30;99.90;;;;;;4922313;29;20047;-73
2023/01/31 02:49:35;;;;;;;7.13;3.13;;;3.40;99.90;;;;;;4905658;29;20028;-73
2023/01/31 02:52:36;;;;;;;6.60;4.03;;;3.40;99.90;;;;;;4911202;29;20040;-73
2023/01/31 02:58:06;;;;;;;6.13;3.00;;;3.50;99.90;;;;;;4922974;29;20096;-73
2023/01/31 03:00:34;;;;;;;6.07;3.20;;;3.50;99.90;;;;;;4922498;29;20096;-73
2023/01/31 03:03:04;;;;;;;5.03;2.83;;;3.50;99.90;;;;;;4921350;29;20079;-73
2023/01/31 03:05:29;;;;;;;5.43;3.53;;;3.60;99.90;;;;;;4905608;29;20036;-73
2023/01/31 03:07:58;;;;;;;5.63;3.28;;;3.60;99.90;;;;;;4922512;29;20032;-73
2023/01/31 03:10:27;;;;;;;;;;;3.60;99.90;;;;;;4921994;29;20047;-73
2023/01/31 03:12:58;;;;;;;7.38;3.58;;;3.60;99.90;;;;;;4922490;29;20010;-73
2023/01/31 03:15:24;;;;;;;8.70;3.50;;;3.50;99.90;;;;;;4906356;29;20036;-73
2023/01/31 03:17:52;;;;;;;7.47;3.63;;;3.40;99.90;;;;;;4907915;29;20024;-73
2023/01/31 03:20:24;;;;;;;5.45;3.28;;;3.40;99.90;;;;;;4908597;29;20030;-72
2023/01/31 03:23:04;;;;;;;7.40;3.47;;;3.40;99.90;;;;;;4904528;29;20481;-73
2023/01/31 03:25:33;;;;;;;7.47;3.97;;;3.40;99.90;;;;;;4922260;29;20100;-73
2023/01/31 03:28:05;;;;;;;8.70;4.15;;;3.40;99.90;;;;;;4922443;29;20387;-73
2023/01/31 03:30:39;;;;;;;7.55;4.00;;;3.50;99.90;;;;;;4904342;29;20039;-73
2023/01/31 03:33:11;;;;;;;9.27;3.00;;;3.50;99.90;;;;;;4906465;29;20032;-73
2023/01/31 03:35:38;;;;;;;5.18;2.70;;;3.50;99.90;;;;;;4904742;29;20438;-73
2023/01/31 03:38:13;;;;;;;10.55;3.03;;;3.60;99.90;;;;;;4906915;29;20118;-72
2023/01/31 03:40:46;;;;;;;6.50;2.50;;;3.60;99.90;;;;;;4923382;29;20055;-72
2023/01/31 03:43:32;;;;;;;4.32;2.97;;;3.70;99.90;;;;;;4904613;29;20130;-72
2023/01/31 03:46:15;;;;;;;4.47;2.65;;;3.70;99.90;;;;;;4923638;29;20095;-72
2023/01/31 03:48:45;;;;;;;3.08;2.33;;;3.70;99.90;;;;;;4907020;29;20028;-72
2023/01/31 03:51:17;;;;;;;8.98;2.58;;;3.70;99.90;;;;;;4924625;29;20055;-73
2023/01/31 03:53:53;;;;;;;2.42;2.17;;;3.80;99.90;;;;;;4925713;29;20051;-73
2023/01/31 03:56:31;;;;;;;7.03;3.17;;;3.80;99.90;;;;;;4925766;29;20044;-73
2023/01/31 03:59:03;;;;;;;4.75;2.22;;;3.70;99.90;;;;;;4926802;29;20047;-72
2023/01/31 04:01:33;;;;;;;3.10;2.35;;;3.70;99.90;;;;;;4908612;29;20474;-72
2023/01/31 04:04:17;;;;;;;10.00;2.42;;;3.70;99.90;;;;;;4925353;29;20047;-72
2023/01/31 04:06:42;;;;;;;6.32;2.10;;;3.80;99.90;;;;;;4907263;29;20063;-72
2023/01/31 04:09:08;;;;;;;5.35;1.98;;;3.80;99.90;;;;;;4921557;29;20470;-72
2023/01/31 04:11:47;;;;;;;4.13;2.08;;;3.80;99.90;;;;;;4922069;29;20035;-72
2023/01/31 04:14:13;;;;;;;5.43;2.38;;;3.80;99.90;;;;;;4903781;29;20067;-72
2023/01/31 04:16:38;;;;;;;3.85;1.80;;;3.90;99.90;;;;;;4921014;29;20036;-71
2023/01/31 04:19:04;;;;;;;11.90;2.38;;;3.90;99.90;;;;;;4904379;29;20032;-71
2023/01/31 04:21:30;;;;;;;5.15;2.13;;;3.90;99.90;;;;;;4904154;29;20100;-72
2023/01/31 04:23:56;;;;;;;5.65;2.45;;;3.90;99.90;;;;;;4920031;29;20032;-72
2023/01/31 04:26:21;;;;;;;4.88;2.55;;;3.90;99.90;;;;;;4920208;29;20044;-71
2023/01/31 04:28:47;;;;;;;8.13;2.65;;;3.90;99.90;;;;;;4904285;29;20173;-71
2023/01/31 04:31:13;;;;;;;4.63;2.70;;;3.80;99.90;;;;;;4903398;29;20028;-71
2023/01/31 04:33:39;;;;;;;6.45;2.95;;;3.80;99.90;;;;;;4902980;29;20462;-71
2023/01/31 04:36:05;;;;;;;10.00;4.47;;;3.80;99.90;;;;;;4920230;29;20481;-71
2023/01/31 04:38:30;;;;;;;8.27;2.80;;;3.80;99.90;;;;;;4902605;29;20119;-71
2023/01/31 04:40:56;;;;;;;7.80;2.22;;;3.80;99.90;;;;;;4902987;29;20089;-71
2023/01/31 04:43:22;;;;;;;9.05;2.50;;;3.80;99.90;;;;;;4920938;29;20035;-71
2023/01/31 04:45:48;;;;;;;9.80;2.58;;;3.80;99.90;;;;;;4919079;29;20036;-71
2023/01/31 04:48:13;;;;;;;8.23;3.28;;;3.80;99.90;;;;;;4919817;29;20083;-71
2023/01/31 04:50:39;;;;;;;6.55;2.70;;;3.80;99.90;;;;;;4919169;29;20031;-71
2023/01/31 04:53:07;;;;;;;8.32;3.10;;;3.80;99.90;;;;;;4902626;29;20033;-72
2023/01/31 04:55:33;;;;;;;3.47;1.88;;;3.80;99.90;;;;;;4919328;29;20035;-72
2023/01/31 04:57:59;;;;;;;4.43;2.35;;;3.80;99.90;;;;;;4919036;29;20455;-71
2023/01/31 05:00:24;;;;;;;3.78;2.00;;;3.80;99.90;;;;;;4901801;29;20115;-71
2023/01/31 05:02:50;;;;;;;6.07;2.40;;;3.90;99.90;;;;;;4901808;29;20028;-71
2023/01/31 05:05:16;;;;;;;5.57;2.85;;;3.90;99.90;;;;;;4902783;29;20040;-72
2023/01/31 05:07:43;;;;;;;6.18;1.88;;;3.90;99.90;;;;;;4918702;29;20055;-71
2023/01/31 05:10:10;;;;;;;7.95;2.35;;;3.90;99.90;;;;;;4918718;29;20040;-73
2023/01/31 05:12:35;;;;;;;4.43;2.08;;;4.00;99.90;;;;;;4919050;29;20431;-73
2023/01/31 05:15:02;;;;;;;5.22;1.52;;;4.00;99.90;;;;;;4918925;29;20024;-73
2023/01/31 05:17:28;;;;;;;8.70;2.05;;;4.00;99.90;;;;;;4903892;29;20386;-73
2023/01/31 05:19:58;;;;;;;5.47;1.95;;;4.00;99.90;;;;;;4922876;29;20028;-69
2023/01/31 05:22:25;;;;;;;4.60;1.83;;;4.00;99.90;;;;;;4920721;29;20040;-68
2023/01/31 05:24:50;;;;;;;5.78;1.73;;;3.90;99.90;;;;;;4905287;29;20034;-71
2023/01/31 05:27:18;;;;;;;8.70;1.98;;;3.90;99.90;;;;;;4922607;29;20067;-70
2023/01/31 05:29:44;;;;;;;4.28;1.80;;;3.80;99.90;;;;;;4904366;29;20032;-70
2023/01/31 05:32:10;;;;;;;6.22;3.65;;;3.80;99.90;;;;;;4922493;29;20032;-69
2023/01/31 05:34:36;;;;;;;8.13;2.28;;;3.80;99.90;;;;;;4920862;29;20087;-72
2023/01/31 05:37:03;;;;;;;5.82;2.70;;;3.80;99.90;;;;;;4920542;29;20036;-73
2023/01/31 05:39:29;;;;;;;4.88;2.42;;;3.80;99.90;;;;;;4903591;29;20028;-71
2023/01/31 05:41:55;;;;;;;5.90;2.15;;;3.80;99.90;;;;;;4905650;29;20036;-72
2023/01/31 05:44:21;;;;;;;7.00;2.08;;;3.80;99.90;;;;;;4921601;29;20056;-71
2023/01/31 05:46:47;;;;;;;6.13;2.42;;;3.80;99.90;;;;;;4903229;29;20471;-70
2023/01/31 05:49:13;;;;;;;3.03;1.90;;;3.80;99.90;;;;;;4919770;29;20035;-70
2023/01/31 05:51:40;;;;;;;5.88;2.10;;;3.80;99.90;;;;;;4919538;29;20418;-69
2023/01/31 05:54:06;;;;;;;8.18;1.92;;;3.80;99.90;;;;;;4902260;29;20032;-69
2023/01/31 05:56:32;;;;;;;5.60;2.15;;;3.90;99.90;;;;;;4903333;29;20043;-70
2023/01/31 05:58:58;;;;;;;10.88;2.83;;;3.90;99.90;;;;;;4901436;29;20452;-70
2023/01/31 06:01:25;;;;;;;6.28;2.55;;;3.90;99.90;;;;;;4903024;29;20035;-70
2023/01/31 06:03:52;;;;;;;8.05;2.58;;;3.80;99.90;;;;;;4919817;29;20048;-70
2023/01/31 06:06:18;;;;;;;7.32;2.75;;;3.80;99.90;;;;;;4904031;29;20039;-69
2023/01/31 06:08:44;;;;;;;6.32;2.25;;;3.80;99.90;;;;;;4903939;29;20039;-70
2023/01/31 06:11:10;;;;;;;5.88;2.63;;;3.70;99.90;;;;;;4905015;29;20482;-70
2023/01/31 06:13:37;;;;;;;6.57;2.95;;;3.70;99.90;;;;;;4922090;29;20423;-71
2023/01/31 06:16:04;;;;;;;9.30;2.58;;;3.70;99.90;;;;;;4921252;29;20462;-70
2023/01/31 06:18:30;;;;;;;6.00;2.58;;;3.80;99.90;;;;;;4918800;29;20036;-69
2023/01/31 06:20:58;;;;;;;4.90;2.38;;;3.80;99.90;;;;;;4918306;29;20035;-70
2023/01/31 06:23:24;;;;;;;5.32;2.60;;;3.80;99.90;;;;;;4918106;29;20032;-70
2023/01/31 06:25:51;;;;;;;6.35;2.65;;;3.80;99.90;;;;;;4900701;29;20127;-70
2023/01/31 06:28:17;;;;;;;9.70;2.22;;;3.80;99.90;;;;;;4900653;29;20033;-69
2023/01/31 06:30:43;;;;;;;5.50;2.58;;;3.80;99.90;;;;;;4917577;29;20039;-69
2023/01/31 06:33:09;;;;;;;6.20;1.83;;;3.80;99.90;;;;;;4917816;29;20024;-69
2023/01/31 06:35:35;;;;;;;9.65;2.67;;;3.80;99.90;;;;;;4917875;29;20069;-69
2023/01/31 06:38:01;;;;;;;9.68;2.47;;;3.80;99.90;;;;;;4917480;29;20032;-69
2023/01/31 06:40:27;;;;;;;10.40;2.38;;;3.90;99.90;;;;;;4917440;29;20032;-68
2023/01/31 06:42:52;;;;;;;8.10;2.17;;;3.90;99.90;;;;;;4917509;29;20103;-69
2023/01/31 06:45:18;;;;;;;5.68;2.30;;;3.90;99.90;;;;;;4900442;29;20246;-69
2023/01/31 06:47:44;;;;;;;4.75;2.00;;;3.90;99.90;;;;;;4900369;29;20497;-69
2023/01/31 06:50:11;;;;;;;8.43;2.33;;;3.80;99.90;;;;;;4917655;29;20107;-69
2023/01/31 06:52:38;;;;;;;7.05;2.28;;;3.80;99.90;;;;;;4900937;29;20033;-68
2023/01/31 06:55:04;;;;;;;7.47;3.25;;;3.90;99.90;;;;;;4918082;29;20024;-69
2023/01/31 06:57:30;;;;;;;7.00;1.83;;;3.90;99.90;;;;;;4917731;29;20494;-69
2023/01/31 06:59:55;;;;;;;9.02;2.30;;;3.90;99.90;;;;;;4917160;29;20028;-70
2023/01/31 07:02:21;;;;;;;7.25;2.53;;;3.90;99.90;;;;;;4900345;29;20367;-68
2023/01/31 07:04:46;;;;;;;7.18;3.33;;;3.80;99.90;;;;;;4899868;29;20048;-68
2023/01/31 07:07:12;;;;;;;8.00;1.90;;;3.80;99.90;;;;;;4900230;29;20050;-69
2023/01/31 07:09:38;;;;;;;5.28;2.28;;;3.80;99.90;;;;;;4919762;29;20103;-69
2023/01/31 07:12:04;;;;;;;6.43;3.05;;;3.80;99.90;;;;;;4905109;29;20533;-69
2023/01/31 07:14:29;;;;;;;7.53;2.03;;;3.80;99.90;;;;;;4921864;29;20039;-69
2023/01/31 07:16:55;;;;;;;8.48;2.33;;;3.80;99.90;;;;;;4921166;29;20036;-69
2023/01/31 07:19:21;;;;;;;8.35;1.98;;;3.80;99.90;;;;;;4904264;29;20028;-69
2023/01/31 07:21:48;;;;;;;6.47;2.03;;;3.90;99.90;;;;;;4903886;29;20028;-69
2023/01/31 07:24:14;;;;;;;5.82;2.00;;;3.90;99.90;;;;;;4920558;29;20028;-68
2023/01/31 07:26:40;;;;;;;6.07;2.20;;;3.90;99.90;;;;;;4903890;29;20490;-69
2023/01/31 07:29:06;;;;;;;4.32;1.60;;;4.00;99.90;;;;;;4904149;29;20490;-69
2023/01/31 07:31:32;;;;;;;6.82;1.90;;;4.00;99.90;;;;;;4903941;29;20044;-69
2023/01/31 07:33:58;;;;;;;10.93;1.58;;;4.00;99.90;;;;;;4920899;29;20025;-69
2023/01/31 07:36:25;;;;;;;8.02;1.48;;;4.00;99.90;;;;;;4903691;29;20119;-69
2023/01/31 07:38:56;;;;;;;8.20;1.77;;;4.10;99.90;;;;;;4904153;29;20032;-68
2023/01/31 07:41:25;;;;;;;2.63;1.45;;;4.10;99.90;;;;;;4903954;29;20127;-69
2023/01/31 07:43:51;;;;;;;2.70;1.48;;;4.10;99.90;;;;;;4903724;29;20060;-68
2023/01/31 07:46:17;;;;;;;4.78;1.05;;;4.20;99.90;;;;;;4903914;29;20040;-69
2023/01/31 07:48:43;;;;;;;4.93;1.20;;;4.30;99.90;;;;;;4921132;29;20020;-69
2023/01/31 07:51:09;;;;;;;7.63;1.35;;;4.30;99.90;;;;;;4921724;29;20088;-69
2023/01/31 07:53:40;;;;;;;2.58;0.95;;;4.40;99.90;;;;;;4921728;29;20529;-68
2023/01/31 07:56:20;;;;;;;3.72;1.08;;;4.50;99.90;;;;;;4920587;29;20474;-69
2023/01/31 07:58:48;;;;;;;4.13;0.80;;;4.90;99.90;;;;;;4921296;29;20024;-68
2023/01/31 08:04:09;;;;;;;4.63;1.10;;;5.40;99.90;;;;;;4920710;29;20095;-68
2023/01/31 08:06:36;;;;;;;4.23;0.50;;;5.50;99.90;;;;;;4920279;29;20035;-69
2023/01/31 08:09:02;;;;;;;2.08;0.50;;;5.50;99.90;;;;;;4903087;29;20025;-68
2023/01/31 08:11:28;;;;;;;4.00;0.80;;;5.50;99.90;;;;;;4903157;29;20031;-68
2023/01/31 08:13:53;;;;;;;9.18;1.75;;;5.40;99.90;;;;;;4919599;29;20028;-68
2023/01/31 08:16:20;;;;;;;10.82;1.95;;;5.30;99.90;;;;;;4920053;29;20038;-68
2023/01/31 08:18:50;;;;;;;3.33;0.93;;;5.50;99.90;;;;;;4919908;29;20458;-68
2023/01/31 08:21:16;;;;;;;7.55;1.40;;;5.60;99.90;;;;;;4902440;29;20477;-68
2023/01/31 08:23:42;;;;;;;4.15;0.98;;;5.60;99.90;;;;;;4919766;29;20063;-68
2023/01/31 08:26:16;;;;;;;4.28;0.93;;;5.30;99.90;;;;;;4902603;29;20064;-69
2023/01/31 08:28:43;;;;;;;2.28;0.73;;;5.20;99.90;;;;;;4919739;29;20040;-69
2023/01/31 08:31:16;;;;;;;2.03;0.50;;;5.10;99.90;;;;;;4902857;29;20032;-69
2023/01/31 08:33:42;;;;;;;6.13;1.10;;;5.00;99.90;;;;;;4902450;29;20035;-69
2023/01/31 08:36:26;;;;;;;3.55;0.40;;;5.00;99.90;;;;;;4919314;29;20068;-69
2023/01/31 08:38:52;;;;;;;2.05;0.60;;;5.00;99.90;;;;;;4919405;29;20036;-68
2023/01/31 08:41:20;;;;;;;3.55;1.20;;;5.00;99.90;;;;;;4902595;29;20447;-69
2023/01/31 08:43:49;;;;;;;4.50;1.15;;;5.00;99.90;;;;;;4902218;29;20111;-69
2023/01/31 08:46:15;;;;;;;4.63;1.50;;;4.80;99.90;;;;;;4918978;29;20463;-69
2023/01/31 08:48:42;;;;;;;4.63;2.00;;;4.70;99.90;;;;;;4902095;29;20039;-69
2023/01/31 08:51:12;;;;;;;9.27;2.05;;;4.40;99.90;;;;;;4902293;29;20037;-69
2023/01/31 08:53:39;;;;;;;10.70;2.88;;;4.20;99.90;;;;;;4919347;29;20131;-69
2023/01/31 08:56:07;;;;;;;10.25;2.72;;;4.00;99.90;;;;;;4902096;29;20036;-69
2023/01/31 08:58:34;;;;;;;12.25;3.00;;;3.90;99.90;;;;;;4918636;29;20497;-69
2023/01/31 09:01:01;;;;;;;12.13;3.15;;;3.70;99.90;;;;;;4901744;29;20024;-69
2023/01/31 09:03:27;;;;;;;17.67;4.32;;;3.70;99.90;;;;;;4901493;29;20129;-69
2023/01/31 09:05:52;;;;;;;10.18;3.80;;;3.60;99.90;;;;;;4918901;29;20044;-69
2023/01/31 09:08:18;;;;;;;12.98;4.15;;;3.60;99.90;;;;;;4918707;29;20063;-69
2023/01/31 09:10:51;;;;;;;11.63;4.00;;;3.60;99.90;;;;;;4918291;29;20032;-70
2023/01/31 09:13:17;;;;;;;11.13;4.13;;;3.60;99.90;;;;;;4901678;29;20031;-69
2023/01/31 09:15:43;;;;;;;11.63;3.78;;;3.60;99.90;;;;;;4901412;29;20036;-69
2023/01/31 09:18:08;;;;;;;7.82;3.75;;;3.70;99.90;;;;;;4918527;29;20028;-69
2023/01/31 09:20:34;;;;;;;9.52;3.50;;;3.80;99.90;;;;;;4918629;29;20155;-69
2023/01/31 09:23:00;;;;;;;8.35;3.63;;;3.90;99.90;;;;;;4918076;29;20485;-69
2023/01/31 09:25:25;;;;;;;12.50;3.08;;;3.90;99.90;;;;;;4918519;29;20036;-69
2023/01/31 09:27:52;;;;;;;11.68;3.80;;;4.00;99.90;;;;;;4918402;29;20489;-69
2023/01/31 09:30:19;;;;;;;10.95;3.13;;;4.00;99.90;;;;;;4918347;29;20107;-69
2023/01/31 09:32:45;;;;;;;9.85;3.20;;;4.10;99.90;;;;;;4900602;29;20039;-69
2023/01/31 09:35:11;;;;;;;8.60;2.78;;;4.20;99.90;;;;;;4901201;29;20032;-69
2023/01/31 09:37:37;;;;;;;7.90;3.22;;;4.20;99.90;;;;;;4900932;29;20060;-69
2023/01/31 09:40:05;;;;;;;9.05;2.80;;;4.20;99.90;;;;;;4918191;29;20059;-69
2023/01/31 09:42:40;;;;;;;7.55;2.63;;;4.20;99.90;;;;;;4901084;29;20454;-69
2023/01/31 09:45:33;;;;;;;14.02;3.78;;;4.20;99.90;;;;;;4900808;29;20052;-69
2023/01/31 09:48:01;;;;;;;8.68;2.75;;;4.20;99.90;;;;;;4911269;29;20043;-69
2023/01/31 09:50:42;;;;;;;13.65;3.35;;;4.20;99.90;;;;;;4919889;29;20079;-70
2023/01/31 09:53:12;;;;;;;10.18;2.42;;;4.20;99.90;;;;;;4918129;29;20474;-70
2023/01/31 09:55:45;;;;;;;6.32;2.35;;;4.20;99.90;;;;;;4918154;29;20036;-69
2023/01/31 09:58:28;;;;;;;4.43;2.58;;;4.30;99.90;;;;;;4901319;29;20030;-69
2023/01/31 10:01:28;;;;;;;12.68;2.55;;;4.30;99.90;;;;;;4917755;29;20028;-69
2023/01/31 10:04:20;;;;;;;4.85;2.35;;;4.40;99.90;;;;;;4900304;29;20513;-69
2023/01/31 10:06:46;;;;;;;8.45;2.35;;;4.40;99.90;;;;;;4900878;29;20040;-69
2023/01/31 10:09:36;;;;;;;10.38;2.53;;;4.50;99.90;;;;;;4900714;29;20509;-69
2023/01/31 10:12:14;;;;;;;9.20;2.33;;;4.70;99.90;;;;;;4892399;29;20036;-69
2023/01/31 10:14:46;;;;;;;5.60;1.90;;;4.70;99.90;;;;;;4917911;29;20032;-70
2023/01/31 10:17:24;;;;;;;7.95;2.58;;;4.80;99.90;;;;;;4900327;29;20159;-70
2023/01/31 10:20:07;;;;;;;8.40;3.08;;;4.80;99.90;;;;;;4900709;29;20382;-69
2023/01/31 10:22:44;;;;;;;7.80;2.40;;;4.80;99.90;;;;;;4918078;29;20036;-70
2023/01/31 10:25:28;;;;;;;7.82;2.50;;;4.80;99.90;;;;;;4917771;29;20024;-69
2023/01/31 10:28:01;;;;;;;5.68;2.05;;;4.80;99.90;;;;;;4917704;29;20028;-69
2023/01/31 10:30:46;;;;;;;7.30;2.15;;;4.90;99.90;;;;;;4900895;29;20032;-69
2023/01/31 10:33:37;;;;;;;8.82;2.55;;;4.90;99.90;;;;;;4900658;29;20036;-69
2023/01/31 10:36:23;;;;;;;5.10;2.17;;;4.90;99.90;;;;;;4883367;29;20044;-70
2023/01/31 10:39:22;;;;;;;6.60;1.50;;;4.80;99.90;;;;;;4918912;29;20144;-70
2023/01/31 10:42:09;;;;;;;7.50;2.20;;;4.90;99.90;;;;;;4891653;29;20040;-69
2023/01/31 10:44:41;;;;;;;6.28;1.88;;;4.80;99.90;;;;;;4920193;29;20028;-69
2023/01/31 10:47:16;;;;;;;5.22;2.53;;;4.80;99.90;;;;;;4922887;29;20032;-70
2023/01/31 10:49:49;;;;;;;4.63;1.80;;;4.80;99.90;;;;;;4925711;29;20063;-70
2023/01/31 10:52:44;;;;;;;6.60;1.88;;;4.90;99.90;;;;;;4925065;29;20031;-69
2023/01/31 10:55:25;;;;;;;8.70;3.42;;;4.90;99.90;;;;;;4925857;29;20059;-70
2023/01/31 10:57:52;;;;;;;5.47;1.90;;;5.00;99.90;;;;;;4907336;29;20024;-69
2023/01/31 11:00:26;;;;;;;3.70;1.52;;;5.10;99.90;;;;;;4922268;29;20497;-69
2023/01/31 11:02:52;;;;;;;4.20;1.55;;;5.10;99.90;;;;;;4923215;29;20031;-69
2023/01/31 11:05:21;;;;;;;7.63;1.70;;;5.20;99.90;;;;;;4923470;29;20048;-69
2023/01/31 11:07:48;;;;;;;5.38;1.65;;;5.30;99.90;;;;;;4923232;29;20538;-69
2023/01/31 11:10:24;;;;;;;6.85;1.15;;;5.40;99.90;;;;;;4923797;29;20032;-69
2023/01/31 11:12:56;;;;;;;5.82;1.60;;;5.40;99.90;;;;;;4922935;29;20028;-69
2023/01/31 11:15:28;;;;;;;5.80;1.38;;;5.50;99.90;;;;;;4923218;29;20055;-69
2023/01/31 11:17:58;;;;;;;3.13;1.20;;;5.60;99.90;;;;;;4922333;29;20405;-69
2023/01/31 11:20:34;;;;;;;5.40;1.40;;;5.70;99.90;;;;;;4921828;29;20044;-69
2023/01/31 11:23:02;;;;;;;6.72;1.73;;;5.80;99.90;;;;;;4905051;29;20028;-69
2023/01/31 11:25:30;;;;;;;7.35;1.40;;;5.90;99.90;;;;;;4922857;29;20031;-69
2023/01/31 11:28:02;;;;;;;4.95;1.42;;;5.90;99.90;;;;;;4905561;29;20029;-69
2023/01/31 11:30:31;;;;;;;8.70;1.90;;;6.00;99.90;;;;;;4921640;29;20111;-68
2023/01/31 11:32:57;;;;;;;7.15;1.60;;;6.00;99.90;;;;;;4905285;29;20056;-69
2023/01/31 11:35:32;;;;;;;4.35;1.70;;;5.80;99.90;;;;;;4920982;29;20024;-69
2023/01/31 11:37:59;;;;;;;4.90;1.90;;;5.80;99.90;;;;;;4920952;29;20103;-69
2023/01/31 11:40:37;;;;;;;6.05;1.90;;;5.80;99.90;;;;;;4903980;29;20123;-69
2023/01/31 11:43:24;;;;;;;6.23;1.80;;;5.80;99.90;;;;;;4921304;29;20036;-69
2023/01/31 11:45:58;;;;;;;9.23;2.05;;;5.50;99.90;;;;;;4903850;29;20530;-69
2023/01/31 11:48:40;;;;;;;7.63;2.00;;;5.50;99.90;;;;;;4903967;29;20067;-69
2023/01/31 11:51:06;;;;;;;6.93;2.28;;;6.20;99.90;;;;;;4920638;29;20028;-68
2023/01/31 11:53:49;;;;;;;6.10;2.13;;;6.60;99.90;;;;;;4920571;29;20382;-68
2023/01/31 11:56:17;;;;;;;5.68;1.90;;;6.50;99.90;;;;;;4902555;29;20035;-68
2023/01/31 11:58:47;;;;;;;6.63;1.92;;;6.30;99.90;;;;;;4920416;29;20490;-68
2023/01/31 12:01:19;;;;;;;5.90;2.55;;;6.10;99.90;;;;;;4920365;29;20036;-68
2023/01/31 12:03:55;;;;;;;3.58;1.65;;;5.80;99.90;;;;;;4919928;29;20416;-68
2023/01/31 12:06:28;;;;;;;9.40;2.47;;;5.60;99.90;;;;;;4902966;29;20040;-68
2023/01/31 12:08:55;;;;;;;7.43;1.92;;;5.50;99.90;;;;;;4919686;29;20028;-68
2023/01/31 12:11:30;;;;;;;4.65;1.80;;;5.50;99.90;;;;;;4920419;29;20050;-68
2023/01/31 12:14:16;;;;;;;9.10;2.20;;;5.60;99.90;;;;;;4919626;29;20028;-68
2023/01/31 12:16:45;;;;;;;8.50;2.08;;;5.60;99.90;;;;;;4902645;29;20040;-68
2023/01/31 12:19:11;;;;;;;3.60;1.80;;;5.60;99.90;;;;;;4902692;29;20040;-68
2023/01/31 12:22:01;;;;;;;6.68;2.10;;;5.70;99.90;;;;;;4902704;29;20036;-68
2023/01/31 12:24:52;;;;;;;14.05;4.25;;;5.70;99.90;;;;;;4902565;29;20080;-68
2023/01/31 12:27:39;;;;;;;8.10;2.13;;;5.90;99.90;;;;;;4919478;29;20036;-68
2023/01/31 12:30:28;;;;;;;10.73;2.40;;;5.90;99.90;;;;;;4919607;29;20111;-68
2023/01/31 12:33:14;;;;;;;9.18;2.35;;;5.90;99.90;;;;;;4919051;29;20545;-68
2023/01/31 12:36:12;;;;;;;4.93;2.00;;;6.10;99.90;;;;;;4902316;29;20043;-68
2023/01/31 12:39:14;;;;;;;5.68;1.70;;;5.90;99.90;;;;;;4870908;29;20040;-68
2023/01/31 12:41:45;;;;;;;5.97;1.80;;;6.20;99.90;;;;;;4902188;29;20039;-68
2023/01/31 12:44:16;;;;;;;3.95;2.20;;;7.40;99.90;;;;;;4902594;29;20119;-68
2023/01/31 12:47:03;;;;;;;9.52;1.90;;;8.30;99.70;;;;;;4919643;29;20032;-68
2023/01/31 12:50:00;;;;;;;4.90;1.75;;;8.70;96.40;;;;;;4919139;29;20032;-68
2023/01/31 12:53:01;;;;;;;16.60;2.17;;;8.90;94.20;;;;;;4911620;29;20052;-68
2023/01/31 12:55:38;;;;;;;7.55;2.20;;;8.00;94.20;;;;;;4901141;29;20024;-68
2023/01/31 12:58:22;;;;;;;8.15;1.98;;;7.30;95.80;;;;;;4919055;29;20067;-68
2023/01/31 13:00:51;;;;;;;9.43;2.38;;;7.10;96.60;;;;;;4919365;29;20040;-68
2023/01/31 13:03:41;;;;;;;8.27;2.10;;;6.80;97.60;;;;;;4918719;29;20056;-68
2023/01/31 13:06:14;;;;;;;5.93;2.00;;;6.80;97.40;;;;;;4901682;29;20036;-68
2023/01/31 13:08:48;;;;;;;5.00;1.80;;;6.80;97.70;;;;;;4918771;29;20059;-68
2023/01/31 13:11:19;;;;;;;12.75;3.00;;;6.60;98.50;;;;;;4918373;29;20032;-68
2023/01/31 13:13:58;;;;;;;8.85;2.20;;;6.40;98.30;;;;;;4901883;29;20024;-68
2023/01/31 13:16:29;;;;;;;5.32;1.52;;;6.40;98.90;;;;;;4918714;29;20573;-68
2023/01/31 13:18:59;;;;;;;3.70;1.55;;;6.30;98.80;;;;;;4918726;29;20087;-68
2023/01/31 13:21:30;;;;;;;4.50;1.95;;;6.60;97.90;;;;;;4918600;29;20039;-68
2023/01/31 13:24:11;;;;;;;5.25;1.48;;;6.70;97.70;;;;;;4901367;29;20123;-69